Time;durP1;ratioP1;P1;durP2;ratioP2;P2;SDS_P1;SDS_P2;PMS_P1;PMS_P2;Temp;Humidity;BMP_temperature;BMP_pressure;BME280_temperature;BME280_humidity;BME280_pressure;Samples;Min_cycle;Max_cycle;Signal;HPM_P1;HPM_P2
2022/08/03 00:02:12;;;;;;;15.70;11.75;;;;;;;21.23;100.00;99621.97;31352201;28;20071;-81
2022/08/03 00:17:14;;;;;;;34.97;18.73;;;;;;;21.21;100.00;99613.44;31385868;28;20145;-81
2022/08/03 00:32:16;;;;;;;57.60;29.67;;;;;;;21.37;100.00;99609.91;31375361;28;20059;-81
2022/08/03 00:47:23;;;;;;;31.85;19.95;;;;;;;21.26;100.00;99598.13;31393749;28;20079;-78
2022/08/03 01:02:26;;;;;;;28.23;18.05;;;;;;;21.10;100.00;99597.59;31389343;28;20152;-80
2022/08/03 01:17:38;;;;;;;23.88;17.17;;;;;;;21.08;100.00;99600.09;31351400;28;20048;-79
2022/08/03 01:32:51;;;;;;;23.40;16.17;;;;;;;20.83;100.00;99600.34;31368034;28;20057;-79
2022/08/03 01:48:04;;;;;;;23.33;17.02;;;;;;;20.73;100.00;99597.84;31354687;28;20406;-80
2022/08/03 02:03:10;;;;;;;25.02;16.70;;;;;;;20.56;100.00;99610.84;31352369;28;20045;-79
2022/08/03 02:18:14;;;;;;;24.30;17.33;;;;;;;20.68;100.00;99617.91;31353520;28;20056;-79
2022/08/03 02:33:26;;;;;;;22.08;15.38;;;;;;;20.59;100.00;99615.34;31339453;28;20065;-79
2022/08/03 02:48:31;;;;;;;23.60;15.45;;;;;;;20.76;100.00;99629.19;31363338;28;20044;-79
2022/08/03 03:03:35;;;;;;;24.15;15.00;;;;;;;20.74;100.00;99626.19;31329956;28;20066;-80
2022/08/03 03:18:48;;;;;;;23.17;17.05;;;;;;;20.60;100.00;99624.38;31369880;28;20049;-79
2022/08/03 03:33:50;;;;;;;26.38;17.67;;;;;;;20.95;100.00;99634.97;31353515;28;20056;-79
2022/08/03 03:48:52;;;;;;;23.17;17.15;;;;;;;21.17;100.00;99629.47;31364307;28;20045;-79
2022/08/03 04:03:54;;;;;;;24.57;17.30;;;;;;;21.46;100.00;99638.50;31362242;28;20052;-81
2022/08/03 04:19:09;;;;;;;19.55;16.20;;;;;;;21.96;100.00;99644.69;31380415;28;20067;-80
2022/08/03 04:34:11;;;;;;;20.75;14.50;;;;;;;22.72;100.00;99643.31;31358376;28;20061;-79
2022/08/03 04:49:13;;;;;;;26.23;17.30;;;;;;;22.77;100.00;99651.59;31357496;28;20048;-79
2022/08/03 05:04:15;;;;;;;25.93;19.40;;;;;;;23.25;100.00;99655.78;31365799;28;20045;-80
2022/08/03 05:19:17;;;;;;;30.47;19.47;;;;;;;23.57;100.00;99666.34;31360862;28;20041;-80
2022/08/03 05:34:19;;;;;;;20.27;14.07;;;;;;;24.48;100.00;99676.69;31342189;28;20068;-80
2022/08/03 05:49:22;;;;;;;18.37;13.07;;;;;;;24.02;100.00;99700.66;31348300;28;20051;-79
2022/08/03 06:04:24;;;;;;;17.38;12.60;;;;;;;24.60;100.00;99697.44;31356016;28;20055;-79
2022/08/03 06:19:26;;;;;;;20.53;13.83;;;;;;;24.91;100.00;99707.13;31332291;28;20064;-81
2022/08/03 06:34:28;;;;;;;20.52;14.13;;;;;;;24.70;100.00;99720.78;31353329;28;20127;-78
2022/08/03 06:49:37;;;;;;;19.90;12.43;;;;;;;24.55;100.00;99731.59;31370495;28;20049;-77
2022/08/03 07:04:39;;;;;;;14.80;11.13;;;;;;;25.06;100.00;99732.41;31359760;28;20048;-79
2022/08/03 07:19:41;;;;;;;16.73;11.85;;;;;;;25.72;96.26;99743.03;31367776;28;20049;-80
2022/08/03 07:34:43;;;;;;;16.77;11.40;;;;;;;25.87;93.22;99748.06;31367708;28;20110;-80
2022/08/03 07:49:45;;;;;;;16.00;11.60;;;;;;;26.28;88.76;99753.09;31368085;28;20056;-79
2022/08/03 08:04:47;;;;;;;11.93;9.52;;;;;;;27.09;85.93;99762.34;31365503;28;20053;-79
2022/08/03 08:19:49;;;;;;;9.98;8.50;;;;;;;27.65;80.33;99771.44;31361353;28;20384;-77
2022/08/03 08:34:54;;;;;;;10.63;8.90;;;;;;;27.72;79.85;99781.91;31382013;28;20406;-81
2022/08/03 08:49:58;;;;;;;11.30;9.65;;;;;;;27.46;79.68;99783.50;31384042;28;20052;-78
2022/08/03 09:05:16;;;;;;;17.05;13.55;;;;;;;27.43;77.11;99773.44;31383177;28;20126;-80
2022/08/03 09:20:20;;;;;;;12.07;9.55;;;;;;;28.34;73.63;99767.13;31342137;28;20053;-79
2022/08/03 09:35:27;;;;;;;16.27;10.25;;;;;;;28.64;70.06;99772.09;31345674;28;20053;-79
2022/08/03 09:50:54;;;;;;;10.25;8.48;;;;;;;29.47;66.07;99777.97;31326383;28;20052;-78
2022/08/03 10:06:14;;;;;;;11.87;7.57;;;;;;;29.95;59.72;99774.63;31361916;28;20053;-81
2022/08/03 10:21:18;;;;;;;10.60;7.03;;;;;;;29.17;64.70;99783.47;31334551;28;20056;-77
2022/08/03 10:36:23;;;;;;;6.63;5.93;;;;;;;29.47;61.84;99783.56;31332361;28;20067;-77
2022/08/03 10:51:30;;;;;;;5.97;5.00;;;;;;;31.09;59.80;99768.69;31384139;28;20049;-80
2022/08/03 11:06:32;;;;;;;11.68;4.63;;;;;;;31.24;54.96;99785.44;31353754;28;20091;-79
2022/08/03 11:21:50;;;;;;;4.22;2.92;;;;;;;32.00;47.04;99778.50;31346802;28;20047;-78
2022/08/03 11:37:19;;;;;;;3.28;2.90;;;;;;;29.27;56.05;99770.47;31359612;28;20049;-81
2022/08/03 11:52:22;;;;;;;4.97;3.10;;;;;;;27.72;60.46;99771.50;31372704;28;20061;-77
2022/08/03 12:07:29;;;;;;;3.03;2.40;;;;;;;27.32;61.63;99773.72;31349301;28;20143;-76
2022/08/03 12:22:51;;;;;;;2.60;2.17;;;;;;;26.77;60.94;99773.63;31357976;28;20093;-76
2022/08/03 12:37:53;;;;;;;3.05;2.30;;;;;;;26.30;62.53;99745.00;31364319;28;20524;-77
2022/08/03 12:52:57;;;;;;;2.63;2.10;;;;;;;26.14;65.26;99732.91;31371901;28;20055;-77
2022/08/03 13:07:59;;;;;;;3.38;2.10;;;;;;;25.81;63.98;99718.31;31384095;28;20113;-77
2022/08/03 13:23:01;;;;;;;3.25;2.00;;;;;;;26.22;64.57;99714.25;31369977;28;20048;-77
2022/08/03 13:38:03;;;;;;;3.05;2.30;;;;;;;26.10;64.17;99730.44;31359260;28;20168;-77
2022/08/03 13:53:05;;;;;;;2.30;2.08;;;;;;;26.21;64.61;99754.53;31354071;28;20044;-77
2022/08/03 14:08:07;;;;;;;3.20;2.28;;;;;;;26.35;63.85;99758.06;31363383;28;20059;-76
2022/08/03 14:23:09;;;;;;;5.70;3.20;;;;;;;26.63;62.18;99777.75;31364668;28;20055;-75
2022/08/03 14:38:13;;;;;;;3.40;2.20;;;;;;;26.64;62.46;99784.06;31355911;28;20054;-77
2022/08/03 14:53:18;;;;;;;2.40;2.20;;;;;;;26.43;62.11;99781.94;31371652;28;20064;-76
2022/08/03 15:08:22;;;;;;;3.35;2.40;;;;;;;26.36;63.00;99762.34;31354410;28;20053;-78
2022/08/03 15:23:25;;;;;;;6.57;5.00;;;;;;;26.15;63.35;99770.56;31371961;28;20487;-76
2022/08/03 15:38:27;;;;;;;4.50;2.80;;;;;;;25.84;64.71;99772.13;31388624;28;20147;-77
2022/08/03 15:53:29;;;;;;;4.63;3.45;;;;;;;25.57;65.14;99764.97;31386622;28;20057;-77
2022/08/03 16:08:31;;;;;;;5.28;3.70;;;;;;;25.07;66.55;99760.94;31357354;28;20049;-77
2022/08/03 16:23:36;;;;;;;;;;;;;;;24.63;69.88;99776.88;31354400;28;20061;-79
2022/08/03 16:38:38;;;;;;;8.38;6.28;;;;;;;24.30;71.06;99786.34;31362466;28;19928;-77
2022/08/03 16:53:40;;;;;;;4.30;3.70;;;;;;;24.20;72.70;99806.59;31383563;28;20048;-77
2022/08/03 17:09:07;;;;;;;6.03;3.97;;;;;;;24.02;73.50;99803.22;31357639;28;20045;-78
2022/08/03 17:24:30;;;;;;;6.57;4.25;;;;;;;23.88;74.43;99820.97;31367848;28;20491;-83
2022/08/03 17:39:32;;;;;;;7.43;4.82;;;;;;;23.69;75.51;99847.84;31370698;28;20144;-79
2022/08/03 17:55:16;;;;;;;7.63;5.73;;;;;;;23.45;78.29;99863.09;31391953;28;20049;-78
2022/08/03 18:10:39;;;;;;;7.35;5.40;;;;;;;23.38;78.07;99866.41;31391803;28;20041;-78
2022/08/03 18:25:51;;;;;;;7.40;5.67;;;;;;;23.34;79.10;99879.78;31392780;28;20053;-77
2022/08/03 18:40:58;;;;;;;6.95;5.63;;;;;;;23.36;80.23;99880.03;31359514;28;20494;-77
2022/08/03 18:56:22;;;;;;;8.03;5.73;;;;;;;23.31;80.89;99875.25;31376463;28;20061;-79
2022/08/03 19:11:36;;;;;;;6.47;5.20;;;;;;;23.25;82.88;99876.56;31366276;28;20131;-78
2022/08/03 19:26:59;;;;;;;7.47;5.27;;;;;;;23.34;82.20;99874.25;31379930;28;20053;-79
2022/08/03 19:42:08;;;;;;;5.70;4.82;;;;;;;23.40;82.71;99877.72;31402638;28;20091;-79
2022/08/03 19:57:35;;;;;;;7.07;5.03;;;;;;;23.39;83.76;99864.38;31378517;28;20049;-78
2022/08/03 20:12:38;;;;;;;7.95;5.10;;;;;;;23.40;84.65;99876.97;31376457;28;20057;-78
2022/08/03 20:27:43;;;;;;;;;;;;;;;23.20;87.50;99877.31;31374901;28;20499;-79
2022/08/03 20:43:05;;;;;;;6.35;4.90;;;;;;;23.16;86.55;99869.28;31374942;28;19927;-79
2022/08/03 20:58:12;;;;;;;9.57;5.80;;;;;;;22.99;87.05;99849.22;31366296;28;20073;-79
2022/08/03 21:13:26;;;;;;;6.60;5.28;;;;;;;23.03;86.11;99863.56;31383406;28;20057;-80
2022/08/03 21:28:29;;;;;;;10.07;5.50;;;;;;;23.07;85.76;99861.28;31365137;28;20075;-78
2022/08/03 21:43:30;;;;;;;8.90;5.13;;;;;;;23.04;85.34;99871.34;31374570;28;20066;-78
2022/08/03 21:58:43;;;;;;;8.83;5.77;;;;;;;22.79;87.14;99870.44;31363753;28;20052;-79
2022/08/03 22:13:51;;;;;;;7.60;5.80;;;;;;;22.70;87.14;99867.16;31357966;28;20052;-76
2022/08/03 22:28:56;;;;;;;11.70;6.23;;;;;;;22.41;90.61;99879.56;31371908;28;20053;-77
2022/08/03 22:43:58;;;;;;;9.05;6.63;;;;;;;22.07;94.12;99890.63;31398538;28;20136;-77
2022/08/03 22:59:05;;;;;;;8.02;6.50;;;;;;;21.95;97.07;99899.41;31371277;28;20180;-78
2022/08/03 23:14:37;;;;;;;8.88;5.88;;;;;;;21.78;99.30;99885.56;31398015;28;20055;-78
2022/08/03 23:29:42;;;;;;;8.63;6.72;;;;;;;21.81;98.54;99873.50;31389290;28;20056;-76
2022/08/03 23:44:45;;;;;;;8.20;6.47;;;;;;;21.95;97.55;99883.59;31365868;28;20053;-77
